sensor_id;sensor_type;location;lat;lon;timestamp;pressure;altitude;pressure_sealevel;temperature;humidity
43436;BME280;36399;51.444;-2.018;2024-02-23T00:01:47;97515.47;;;2.19;100.00
43436;BME280;36399;51.444;-2.018;2024-02-23T00:04:13;97512.91;;;2.22;100.00
43436;BME280;36399;51.444;-2.018;2024-02-23T00:06:39;97509.44;;;2.20;100.00
43436;BME280;36399;51.444;-2.018;2024-02-23T00:09:05;97509.41;;;2.32;100.00
43436;BME280;36399;51.444;-2.018;2024-02-23T00:11:31;97481.78;;;2.37;100.00
43436;BME280;36399;51.444;-2.018;2024-02-23T00:13:59;97486.06;;;2.52;100.00
43436;BME280;36399;51.444;-2.018;2024-02-23T00:16:25;97477.41;;;2.59;100.00
43436;BME280;36399;51.444;-2.018;2024-02-23T00:18:52;97478.25;;;2.60;100.00
43436;BME280;36399;51.444;-2.018;2024-02-23T00:21:18;97460.13;;;2.69;100.00
43436;BME280;36399;51.444;-2.018;2024-02-23T00:23:44;97464.41;;;2.76;100.00
43436;BME280;36399;51.444;-2.018;2024-02-23T00:26:10;97465.28;;;2.72;100.00
43436;BME280;36399;51.444;-2.018;2024-02-23T00:28:36;97456.63;;;2.79;100.00
43436;BME280;36399;51.444;-2.018;2024-02-23T00:31:02;97456.63;;;2.80;100.00
43436;BME280;36399;51.444;-2.018;2024-02-23T00:33:28;97450.56;;;2.83;100.00
43436;BME280;36399;51.444;-2.018;2024-02-23T00:35:53;97448.81;;;2.85;100.00
43436;BME280;36399;51.444;-2.018;2024-02-23T00:38:19;97447.06;;;2.89;100.00
43436;BME280;36399;51.444;-2.018;2024-02-23T00:40:45;97442.75;;;2.91;100.00
43436;BME280;36399;51.444;-2.018;2024-02-23T00:43:11;97443.66;;;2.79;100.00
43436;BME280;36399;51.444;-2.018;2024-02-23T00:45:37;97447.13;;;2.81;100.00
43436;BME280;36399;51.444;-2.018;2024-02-23T00:48:03;97453.19;;;2.74;100.00
43436;BME280;36399;51.444;-2.018;2024-02-23T00:50:29;97453.19;;;2.72;100.00
43436;BME280;36399;51.444;-2.018;2024-02-23T00:52:55;97443.69;;;2.76;100.00
43436;BME280;36399;51.444;-2.018;2024-02-23T00:55:21;97450.59;;;2.74;100.00
43436;BME280;36399;51.444;-2.018;2024-02-23T00:57:47;97438.47;;;2.80;100.00
43436;BME280;36399;51.444;-2.018;2024-02-23T01:00:13;97442.81;;;2.75;100.00
43436;BME280;36399;51.444;-2.018;2024-02-23T01:02:40;97436.78;;;2.78;100.00
43436;BME280;36399;51.444;-2.018;2024-02-23T01:05:06;97431.56;;;2.81;100.00
43436;BME280;36399;51.444;-2.018;2024-02-23T01:07:35;97426.41;;;2.79;100.00
43436;BME280;36399;51.444;-2.018;2024-02-23T01:10:01;97415.97;;;2.90;100.00
43436;BME280;36399;51.444;-2.018;2024-02-23T01:12:27;97421.19;;;2.84;100.00
43436;BME280;36399;51.444;-2.018;2024-02-23T01:14:53;97414.25;;;2.89;100.00
43436;BME280;36399;51.444;-2.018;2024-02-23T01:17:19;97405.59;;;2.90;100.00
43436;BME280;36399;51.444;-2.018;2024-02-23T01:19:45;97405.59;;;2.90;100.00
43436;BME280;36399;51.444;-2.018;2024-02-23T01:22:11;97408.19;;;2.93;100.00
43436;BME280;36399;51.444;-2.018;2024-02-23T01:24:37;97406.44;;;2.97;100.00
43436;BME280;36399;51.444;-2.018;2024-02-23T01:27:03;97407.28;;;2.97;100.00
43436;BME280;36399;51.444;-2.018;2024-02-23T01:29:29;97394.25;;;3.08;100.00
43436;BME280;36399;51.444;-2.018;2024-02-23T01:31:55;97400.31;;;3.08;100.00
43436;BME280;36399;51.444;-2.018;2024-02-23T01:34:21;97396.84;;;3.12;100.00
43436;BME280;36399;51.444;-2.018;2024-02-23T01:36:48;97383.03;;;3.13;100.00
43436;BME280;36399;51.444;-2.018;2024-02-23T01:39:14;97400.28;;;3.10;100.00
43436;BME280;36399;51.444;-2.018;2024-02-23T01:41:40;97398.47;;;3.27;100.00
43436;BME280;36399;51.444;-2.018;2024-02-23T01:44:06;97393.28;;;3.26;100.00
43436;BME280;36399;51.444;-2.018;2024-02-23T01:46:32;97369.13;;;3.21;100.00
43436;BME280;36399;51.444;-2.018;2024-02-23T01:48:58;97369.97;;;3.26;100.00
43436;BME280;36399;51.444;-2.018;2024-02-23T01:51:25;97375.16;;;3.23;100.00
43436;BME280;36399;51.444;-2.018;2024-02-23T01:53:53;97374.28;;;3.24;100.00
43436;BME280;36399;51.444;-2.018;2024-02-23T01:56:20;97377.75;;;3.23;100.00
43436;BME280;36399;51.444;-2.018;2024-02-23T01:58:46;97379.50;;;3.21;100.00
43436;BME280;36399;51.444;-2.018;2024-02-23T02:01:12;97380.41;;;3.16;100.00
43436;BME280;36399;51.444;-2.018;2024-02-23T02:03:39;97370.88;;;3.19;100.00
43436;BME280;36399;51.444;-2.018;2024-02-23T02:06:06;97370.84;;;3.25;100.00
43436;BME280;36399;51.444;-2.018;2024-02-23T02:08:33;97376.88;;;3.25;100.00
43436;BME280;36399;51.444;-2.018;2024-02-23T02:11:00;97348.31;;;3.30;100.00
43436;BME280;36399;51.444;-2.018;2024-02-23T02:13:30;97353.47;;;3.33;100.00
43436;BME280;36399;51.444;-2.018;2024-02-23T02:15:59;97346.56;;;3.32;100.00
43436;BME280;36399;51.444;-2.018;2024-02-23T02:18:26;97333.59;;;3.35;100.00
43436;BME280;36399;51.444;-2.018;2024-02-23T02:20:54;97328.41;;;3.35;100.00
43436;BME280;36399;51.444;-2.018;2024-02-23T02:23:21;97328.41;;;3.35;100.00
43436;BME280;36399;51.444;-2.018;2024-02-23T02:25:56;97318.94;;;3.31;100.00
43436;BME280;36399;51.444;-2.018;2024-02-23T02:28:23;97307.63;;;3.39;100.00
43436;BME280;36399;51.444;-2.018;2024-02-23T02:30:50;97305.09;;;3.32;100.00
43436;BME280;36399;51.444;-2.018;2024-02-23T02:33:17;97320.66;;;3.32;100.00
43436;BME280;36399;51.444;-2.018;2024-02-23T02:35:43;97318.91;;;3.34;100.00
43436;BME280;36399;51.444;-2.018;2024-02-23T02:38:10;97325.81;;;3.35;100.00
43436;BME280;36399;51.444;-2.018;2024-02-23T02:40:36;97329.28;;;3.34;100.00
43436;BME280;36399;51.444;-2.018;2024-02-23T02:43:02;97317.16;;;3.34;100.00
43436;BME280;36399;51.444;-2.018;2024-02-23T02:45:28;97315.47;;;3.32;100.00
43436;BME280;36399;51.444;-2.018;2024-02-23T02:47:54;97312.84;;;3.33;100.00
43436;BME280;36399;51.444;-2.018;2024-02-23T02:50:22;97321.50;;;3.32;100.00
43436;BME280;36399;51.444;-2.018;2024-02-23T02:52:48;97327.63;;;3.27;100.00
43436;BME280;36399;51.444;-2.018;2024-02-23T02:55:14;97326.81;;;3.20;100.00
43436;BME280;36399;51.444;-2.018;2024-02-23T02:57:40;97338.97;;;3.09;100.00
43436;BME280;36399;51.444;-2.018;2024-02-23T03:00:10;97336.41;;;3.04;100.00
43436;BME280;36399;51.444;-2.018;2024-02-23T03:02:36;97341.63;;;3.01;100.00
43436;BME280;36399;51.444;-2.018;2024-02-23T03:05:02;97330.41;;;2.98;100.00
43436;BME280;36399;51.444;-2.018;2024-02-23T03:07:28;97338.19;;;2.96;100.00
43436;BME280;36399;51.444;-2.018;2024-02-23T03:09:53;97328.81;;;2.81;100.00
43436;BME280;36399;51.444;-2.018;2024-02-23T03:12:20;97327.91;;;2.87;100.00
43436;BME280;36399;51.444;-2.018;2024-02-23T03:14:46;97327.06;;;2.83;100.00
43436;BME280;36399;51.444;-2.018;2024-02-23T03:17:13;97330.50;;;2.85;100.00
43436;BME280;36399;51.444;-2.018;2024-02-23T03:19:39;97324.50;;;2.79;100.00
43436;BME280;36399;51.444;-2.018;2024-02-23T03:22:05;97331.41;;;2.80;100.00
43436;BME280;36399;51.444;-2.018;2024-02-23T03:24:31;97334.91;;;2.73;100.00
43436;BME280;36399;51.444;-2.018;2024-02-23T03:26:57;97329.75;;;2.73;100.00
43436;BME280;36399;51.444;-2.018;2024-02-23T03:29:23;97330.66;;;2.64;100.00
43436;BME280;36399;51.444;-2.018;2024-02-23T03:31:50;97330.69;;;2.55;100.00
43436;BME280;36399;51.444;-2.018;2024-02-23T03:34:16;97327.25;;;2.51;100.00
43436;BME280;36399;51.444;-2.018;2024-02-23T03:36:43;97335.03;;;2.51;100.00
43436;BME280;36399;51.444;-2.018;2024-02-23T03:39:09;97338.44;;;2.57;100.00
43436;BME280;36399;51.444;-2.018;2024-02-23T03:41:35;97334.97;;;2.58;100.00
43436;BME280;36399;51.444;-2.018;2024-02-23T03:44:00;97329.88;;;2.47;100.00
43436;BME280;36399;51.444;-2.018;2024-02-23T03:46:26;97329.91;;;2.39;100.00
43436;BME280;36399;51.444;-2.018;2024-02-23T03:48:52;97328.16;;;2.43;100.00
43436;BME280;36399;51.444;-2.018;2024-02-23T03:51:18;97323.03;;;2.38;100.00
43436;BME280;36399;51.444;-2.018;2024-02-23T03:53:44;97331.59;;;2.49;100.00
43436;BME280;36399;51.444;-2.018;2024-02-23T03:56:10;97329.88;;;2.48;100.00
43436;BME280;36399;51.444;-2.018;2024-02-23T03:58:36;97329.03;;;2.43;100.00
43436;BME280;36399;51.444;-2.018;2024-02-23T04:01:02;97329.03;;;2.42;100.00
43436;BME280;36399;51.444;-2.018;2024-02-23T04:03:28;97332.56;;;2.30;100.00
43436;BME280;36399;51.444;-2.018;2024-02-23T04:05:54;97329.06;;;2.37;100.00
43436;BME280;36399;51.444;-2.018;2024-02-23T04:08:20;97325.69;;;2.26;100.00
43436;BME280;36399;51.444;-2.018;2024-02-23T04:10:46;97329.16;;;2.17;100.00
43436;BME280;36399;51.444;-2.018;2024-02-23T04:13:12;97328.25;;;2.26;100.00
43436;BME280;36399;51.444;-2.018;2024-02-23T04:15:40;97330.91;;;2.12;100.00
43436;BME280;36399;51.444;-2.018;2024-02-23T04:18:06;97321.44;;;2.13;100.00
43436;BME280;36399;51.444;-2.018;2024-02-23T04:20:32;97309.31;;;2.18;100.00
43436;BME280;36399;51.444;-2.018;2024-02-23T04:22:58;97311.91;;;2.18;100.00
43436;BME280;36399;51.444;-2.018;2024-02-23T04:25:24;97298.06;;;2.28;100.00
43436;BME280;36399;51.444;-2.018;2024-02-23T04:27:51;97289.47;;;2.21;100.00
43436;BME280;36399;51.444;-2.018;2024-02-23T04:30:17;97293.78;;;2.22;100.00
43436;BME280;36399;51.444;-2.018;2024-02-23T04:32:43;97304.13;;;2.21;100.00
43436;BME280;36399;51.444;-2.018;2024-02-23T04:35:10;97300.72;;;2.16;100.00
43436;BME280;36399;51.444;-2.018;2024-02-23T04:37:37;97309.31;;;2.21;100.00
43436;BME280;36399;51.444;-2.018;2024-02-23T04:40:03;97309.34;;;2.15;100.00
43436;BME280;36399;51.444;-2.018;2024-02-23T04:42:31;97311.03;;;2.22;100.00
43436;BME280;36399;51.444;-2.018;2024-02-23T04:44:57;97308.44;;;2.25;100.00
43436;BME280;36399;51.444;-2.018;2024-02-23T04:47:23;97313.66;;;2.14;100.00
43436;BME280;36399;51.444;-2.018;2024-02-23T04:49:49;97303.28;;;2.19;100.00
43436;BME280;36399;51.444;-2.018;2024-02-23T04:52:15;97301.56;;;2.19;100.00
43436;BME280;36399;51.444;-2.018;2024-02-23T04:54:41;97295.50;;;2.22;100.00
43436;BME280;36399;51.444;-2.018;2024-02-23T04:57:07;97298.97;;;2.18;100.00
43436;BME280;36399;51.444;-2.018;2024-02-23T04:59:33;97289.50;;;2.14;100.00
43436;BME280;36399;51.444;-2.018;2024-02-23T05:01:59;97291.25;;;2.13;100.00
43436;BME280;36399;51.444;-2.018;2024-02-23T05:04:27;97287.81;;;2.11;100.00
43436;BME280;36399;51.444;-2.018;2024-02-23T05:06:54;97283.47;;;2.12;100.00
43436;BME280;36399;51.444;-2.018;2024-02-23T05:09:19;97277.41;;;2.20;100.00
43436;BME280;36399;51.444;-2.018;2024-02-23T05:11:46;97279.16;;;2.15;100.00
43436;BME280;36399;51.444;-2.018;2024-02-23T05:14:14;97280.00;;;2.17;100.00
43436;BME280;36399;51.444;-2.018;2024-02-23T05:16:39;97286.06;;;2.10;100.00
43436;BME280;36399;51.444;-2.018;2024-02-23T05:19:05;97283.47;;;2.06;100.00
43436;BME280;36399;51.444;-2.018;2024-02-23T05:21:31;97281.78;;;1.99;100.00
43436;BME280;36399;51.444;-2.018;2024-02-23T05:23:57;97273.16;;;2.03;100.00
43436;BME280;36399;51.444;-2.018;2024-02-23T05:26:23;97273.16;;;2.03;100.00
43436;BME280;36399;51.444;-2.018;2024-02-23T05:28:49;97267.97;;;2.09;100.00
43436;BME280;36399;51.444;-2.018;2024-02-23T05:31:15;97260.16;;;2.18;100.00
43436;BME280;36399;51.444;-2.018;2024-02-23T05:33:41;97255.75;;;2.32;100.00
43436;BME280;36399;51.444;-2.018;2024-02-23T05:36:07;97263.56;;;2.28;100.00
43436;BME280;36399;51.444;-2.018;2024-02-23T05:38:33;97265.31;;;2.24;100.00
43436;BME280;36399;51.444;-2.018;2024-02-23T05:40:59;97259.28;;;2.22;100.00
43436;BME280;36399;51.444;-2.018;2024-02-23T05:43:26;97248.91;;;2.22;100.00
43436;BME280;36399;51.444;-2.018;2024-02-23T05:45:52;97253.19;;;2.29;100.00
43436;BME280;36399;51.444;-2.018;2024-02-23T05:48:19;97253.25;;;2.20;100.00
43436;BME280;36399;51.444;-2.018;2024-02-23T05:50:45;97252.38;;;2.21;100.00
43436;BME280;36399;51.444;-2.018;2024-02-23T05:53:11;97243.69;;;2.31;100.00
43436;BME280;36399;51.444;-2.018;2024-02-23T05:55:37;97242.84;;;2.29;100.00
43436;BME280;36399;51.444;-2.018;2024-02-23T05:58:03;97242.00;;;2.24;100.00
43436;BME280;36399;51.444;-2.018;2024-02-23T06:00:30;97241.97;;;2.32;100.00
43436;BME280;36399;51.444;-2.018;2024-02-23T06:02:57;97235.13;;;2.23;100.00
43436;BME280;36399;51.444;-2.018;2024-02-23T06:05:23;97232.56;;;2.18;100.00
43436;BME280;36399;51.444;-2.018;2024-02-23T06:07:49;97236.81;;;2.27;100.00
43436;BME280;36399;51.444;-2.018;2024-02-23T06:10:15;97233.38;;;2.25;100.00
43436;BME280;36399;51.444;-2.018;2024-02-23T06:12:41;97229.00;;;2.33;100.00
43436;BME280;36399;51.444;-2.018;2024-02-23T06:15:07;97219.53;;;2.32;100.00
43436;BME280;36399;51.444;-2.018;2024-02-23T06:17:33;97217.00;;;2.23;100.00
43436;BME280;36399;51.444;-2.018;2024-02-23T06:19:59;97223.06;;;2.17;100.00
43436;BME280;36399;51.444;-2.018;2024-02-23T06:22:25;97226.53;;;2.18;100.00
43436;BME280;36399;51.444;-2.018;2024-02-23T06:24:51;97223.06;;;2.19;100.00
43436;BME280;36399;51.444;-2.018;2024-02-23T06:27:17;97240.31;;;2.20;100.00
43436;BME280;36399;51.444;-2.018;2024-02-23T06:29:43;97233.47;;;2.07;100.00
43436;BME280;36399;51.444;-2.018;2024-02-23T06:32:09;97237.75;;;2.15;100.00
43436;BME280;36399;51.444;-2.018;2024-02-23T06:34:35;97233.41;;;2.22;100.00
43436;BME280;36399;51.444;-2.018;2024-02-23T06:37:04;97227.34;;;2.23;100.00
43436;BME280;36399;51.444;-2.018;2024-02-23T06:39:30;97223.81;;;2.33;100.00
43436;BME280;36399;51.444;-2.018;2024-02-23T06:41:55;97214.34;;;2.34;100.00
43436;BME280;36399;51.444;-2.018;2024-02-23T06:44:23;97206.59;;;2.31;100.00
43436;BME280;36399;51.444;-2.018;2024-02-23T06:46:49;97208.28;;;2.36;100.00
43436;BME280;36399;51.444;-2.018;2024-02-23T06:49:15;97202.31;;;2.25;100.00
43436;BME280;36399;51.444;-2.018;2024-02-23T06:51:41;97203.97;;;2.35;100.00
43436;BME280;36399;51.444;-2.018;2024-02-23T06:54:07;97193.63;;;2.32;100.00
43436;BME280;36399;51.444;-2.018;2024-02-23T06:56:34;97207.47;;;2.28;100.00
43436;BME280;36399;51.444;-2.018;2024-02-23T06:59:00;97210.03;;;2.31;100.00
43436;BME280;36399;51.444;-2.018;2024-02-23T07:01:26;97197.97;;;2.30;100.00
43436;BME280;36399;51.444;-2.018;2024-02-23T07:03:53;97202.22;;;2.37;100.00
43436;BME280;36399;51.444;-2.018;2024-02-23T07:06:19;97200.47;;;2.42;100.00
43436;BME280;36399;51.444;-2.018;2024-02-23T07:08:45;97200.44;;;2.45;100.00
43436;BME280;36399;51.444;-2.018;2024-02-23T07:11:11;97191.75;;;2.51;100.00
43436;BME280;36399;51.444;-2.018;2024-02-23T07:13:37;97199.47;;;2.62;100.00
43436;BME280;36399;51.444;-2.018;2024-02-23T07:16:04;97193.31;;;2.75;100.00
43436;BME280;36399;51.444;-2.018;2024-02-23T07:18:30;97188.03;;;2.84;100.00
43436;BME280;36399;51.444;-2.018;2024-02-23T07:20:56;97194.09;;;2.83;100.00
43436;BME280;36399;51.444;-2.018;2024-02-23T07:23:22;97191.34;;;2.98;100.00
43436;BME280;36399;51.444;-2.018;2024-02-23T07:25:48;97189.72;;;2.91;100.00
43436;BME280;36399;51.444;-2.018;2024-02-23T07:28:16;97180.19;;;2.92;100.00
43436;BME280;36399;51.444;-2.018;2024-02-23T07:30:45;97186.28;;;2.89;100.00
43436;BME280;36399;51.444;-2.018;2024-02-23T07:33:11;97189.66;;;2.94;100.00
43436;BME280;36399;51.444;-2.018;2024-02-23T07:35:37;97188.84;;;2.92;100.00
43436;BME280;36399;51.444;-2.018;2024-02-23T07:38:03;97186.22;;;2.95;100.00
43436;BME280;36399;51.444;-2.018;2024-02-23T07:40:29;97205.19;;;2.99;100.00
43436;BME280;36399;51.444;-2.018;2024-02-23T07:42:57;97202.53;;;3.05;100.00
43436;BME280;36399;51.444;-2.018;2024-02-23T07:45:23;97196.41;;;3.10;100.00
43436;BME280;36399;51.444;-2.018;2024-02-23T07:47:49;97204.19;;;3.10;100.00
43436;BME280;36399;51.444;-2.018;2024-02-23T07:50:15;97208.56;;;3.05;100.00
43436;BME280;36399;51.444;-2.018;2024-02-23T07:52:41;97197.25;;;3.15;100.00
43436;BME280;36399;51.444;-2.018;2024-02-23T07:55:08;97199.81;;;3.19;100.00
43436;BME280;36399;51.444;-2.018;2024-02-23T07:57:34;97196.34;;;3.20;100.00
43436;BME280;36399;51.444;-2.018;2024-02-23T08:00:00;97207.53;;;3.25;100.00
43436;BME280;36399;51.444;-2.018;2024-02-23T08:02:26;97211.72;;;3.35;100.00
43436;BME280;36399;51.444;-2.018;2024-02-23T08:04:52;97226.41;;;3.37;100.00
43436;BME280;36399;51.444;-2.018;2024-02-23T08:07:18;97228.97;;;3.39;100.00
43436;BME280;36399;51.444;-2.018;2024-02-23T08:09:44;97219.38;;;3.45;100.00
43436;BME280;36399;51.444;-2.018;2024-02-23T08:12:10;97227.00;;;3.59;100.00
43436;BME280;36399;51.444;-2.018;2024-02-23T08:14:39;97229.44;;;3.74;100.00
43436;BME280;36399;51.444;-2.018;2024-02-23T08:17:05;97227.69;;;3.78;100.00
43436;BME280;36399;51.444;-2.018;2024-02-23T08:19:31;97225.75;;;3.94;100.00
43436;BME280;36399;51.444;-2.018;2024-02-23T08:21:57;97229.88;;;4.07;100.00
43436;BME280;36399;51.444;-2.018;2024-02-23T08:24:23;97237.63;;;4.10;100.00
43436;BME280;36399;51.444;-2.018;2024-02-23T08:26:49;97243.69;;;4.09;100.00
43436;BME280;36399;51.444;-2.018;2024-02-23T08:29:15;97251.50;;;4.07;100.00
43436;BME280;36399;51.444;-2.018;2024-02-23T08:31:41;97258.41;;;4.08;100.00
43436;BME280;36399;51.444;-2.018;2024-02-23T08:34:08;97267.84;;;4.17;100.00
43436;BME280;36399;51.444;-2.018;2024-02-23T08:36:34;97273.88;;;4.21;100.00
43436;BME280;36399;51.444;-2.018;2024-02-23T08:39:00;97279.97;;;4.13;100.00
43436;BME280;36399;51.444;-2.018;2024-02-23T08:41:27;97297.25;;;4.16;100.00
43436;BME280;36399;51.444;-2.018;2024-02-23T08:43:52;97306.63;;;4.29;100.00
43436;BME280;36399;51.444;-2.018;2024-02-23T08:46:20;97323.94;;;4.29;100.00
43436;BME280;36399;51.444;-2.018;2024-02-23T08:48:47;97337.00;;;4.24;100.00
43436;BME280;36399;51.444;-2.018;2024-02-23T08:51:13;97349.91;;;4.29;100.00
43436;BME280;36399;51.444;-2.018;2024-02-23T08:53:39;97358.63;;;4.25;100.00
43436;BME280;36399;51.444;-2.018;2024-02-23T08:56:09;97357.53;;;4.42;100.00
43436;BME280;36399;51.444;-2.018;2024-02-23T08:58:35;97373.13;;;4.41;100.00
43436;BME280;36399;51.444;-2.018;2024-02-23T09:01:01;97378.22;;;4.49;100.00
43436;BME280;36399;51.444;-2.018;2024-02-23T09:03:27;97393.88;;;4.42;100.00
43436;BME280;36399;51.444;-2.018;2024-02-23T09:05:53;97400.81;;;4.43;100.00
43436;BME280;36399;51.444;-2.018;2024-02-23T09:08:19;97410.34;;;4.43;100.00
43436;BME280;36399;51.444;-2.018;2024-02-23T09:10:45;97409.41;;;4.49;100.00
43436;BME280;36399;51.444;-2.018;2024-02-23T09:13:11;97423.03;;;4.66;100.00
43436;BME280;36399;51.444;-2.018;2024-02-23T09:15:37;97435.16;;;4.67;100.00
43436;BME280;36399;51.444;-2.018;2024-02-23T09:18:03;97442.66;;;4.90;100.00
43436;BME280;36399;51.444;-2.018;2024-02-23T09:20:29;97454.78;;;4.91;100.00
43436;BME280;36399;51.444;-2.018;2024-02-23T09:22:55;97467.50;;;5.11;100.00
43436;BME280;36399;51.444;-2.018;2024-02-23T09:25:21;97481.19;;;5.26;100.00
43436;BME280;36399;51.444;-2.018;2024-02-23T09:27:47;97493.25;;;5.32;100.00
43436;BME280;36399;51.444;-2.018;2024-02-23T09:30:13;97509.56;;;5.42;100.00
43436;BME280;36399;51.444;-2.018;2024-02-23T09:32:39;97520.78;;;5.47;100.00
43436;BME280;36399;51.444;-2.018;2024-02-23T09:35:06;97543.41;;;5.40;100.00
43436;BME280;36399;51.444;-2.018;2024-02-23T09:37:32;97555.38;;;5.53;100.00
43436;BME280;36399;51.444;-2.018;2024-02-23T09:39:58;97569.44;;;5.40;100.00
43436;BME280;36399;51.444;-2.018;2024-02-23T09:42:25;97579.59;;;5.58;100.00
43436;BME280;36399;51.444;-2.018;2024-02-23T09:44:57;97594.25;;;5.64;100.00
43436;BME280;36399;51.444;-2.018;2024-02-23T09:47:26;97592.16;;;5.93;100.00
43436;BME280;36399;51.444;-2.018;2024-02-23T09:49:53;97609.59;;;5.85;100.00
43436;BME280;36399;51.444;-2.018;2024-02-23T09:52:20;97621.47;;;6.06;100.00
43436;BME280;36399;51.444;-2.018;2024-02-23T09:54:47;97636.25;;;6.04;100.00
43436;BME280;36399;51.444;-2.018;2024-02-23T09:57:14;97653.75;;;5.96;100.00
43436;BME280;36399;51.444;-2.018;2024-02-23T09:59:42;97663.22;;;6.00;100.00
43436;BME280;36399;51.444;-2.018;2024-02-23T10:02:09;97678.94;;;5.94;100.00
43436;BME280;36399;51.444;-2.018;2024-02-23T10:04:38;97685.63;;;6.12;100.00
43436;BME280;36399;51.444;-2.018;2024-02-23T10:07:06;97698.25;;;6.41;100.00
43436;BME280;36399;51.444;-2.018;2024-02-23T10:09:32;97698.47;;;6.25;100.00
43436;BME280;36399;51.444;-2.018;2024-02-23T10:11:58;97700.91;;;6.38;100.00
43436;BME280;36399;51.444;-2.018;2024-02-23T10:14:23;97705.38;;;6.28;100.00
43436;BME280;36399;51.444;-2.018;2024-02-23T10:16:50;97707.00;;;6.37;100.00
43436;BME280;36399;51.444;-2.018;2024-02-23T10:19:19;97705.13;;;6.45;100.00
43436;BME280;36399;51.444;-2.018;2024-02-23T10:21:46;97707.44;;;6.64;100.00
43436;BME280;36399;51.444;-2.018;2024-02-23T10:24:12;97712.81;;;7.08;100.00
43436;BME280;36399;51.444;-2.018;2024-02-23T10:26:38;97710.94;;;7.16;100.00
43436;BME280;36399;51.444;-2.018;2024-02-23T10:29:04;97711.84;;;7.13;100.00
43436;BME280;36399;51.444;-2.018;2024-02-23T10:31:34;97712.63;;;7.18;100.00
43436;BME280;36399;51.444;-2.018;2024-02-23T10:34:08;97709.84;;;7.29;100.00
43436;BME280;36399;51.444;-2.018;2024-02-23T10:36:45;97702.22;;;7.17;100.00
43436;BME280;36399;51.444;-2.018;2024-02-23T10:39:16;97694.25;;;7.24;100.00
43436;BME280;36399;51.444;-2.018;2024-02-23T10:41:56;97684.59;;;7.28;100.00
43436;BME280;36399;51.444;-2.018;2024-02-23T10:44:24;97672.00;;;7.51;100.00
43436;BME280;36399;51.444;-2.018;2024-02-23T10:46:53;97677.50;;;7.38;100.00
43436;BME280;36399;51.444;-2.018;2024-02-23T10:49:23;97680.09;;;7.38;100.00
43436;BME280;36399;51.444;-2.018;2024-02-23T10:51:52;97677.84;;;7.64;100.00
43436;BME280;36399;51.444;-2.018;2024-02-23T10:54:19;97674.16;;;8.54;100.00
43436;BME280;36399;51.444;-2.018;2024-02-23T10:56:48;97693.31;;;9.59;100.00
43436;BME280;36399;51.444;-2.018;2024-02-23T10:59:14;97709.72;;;10.27;100.00
43436;BME280;36399;51.444;-2.018;2024-02-23T11:01:48;97691.31;;;10.29;100.00
43436;BME280;36399;51.444;-2.018;2024-02-23T11:04:17;97656.31;;;10.58;100.00
43436;BME280;36399;51.444;-2.018;2024-02-23T11:06:49;97628.09;;;10.08;100.00
43436;BME280;36399;51.444;-2.018;2024-02-23T11:09:20;97633.25;;;9.82;100.00
43436;BME280;36399;51.444;-2.018;2024-02-23T11:11:56;97620.91;;;9.25;100.00
43436;BME280;36399;51.444;-2.018;2024-02-23T11:14:31;97628.81;;;8.56;100.00
43436;BME280;36399;51.444;-2.018;2024-02-23T11:17:01;97642.81;;;8.14;100.00
43436;BME280;36399;51.444;-2.018;2024-02-23T11:19:38;97641.81;;;7.80;100.00
43436;BME280;36399;51.444;-2.018;2024-02-23T11:22:09;97659.59;;;7.63;100.00
43436;BME280;36399;51.444;-2.018;2024-02-23T11:24:43;97663.41;;;7.46;100.00
43436;BME280;36399;51.444;-2.018;2024-02-23T11:27:14;97672.88;;;7.04;100.00
43436;BME280;36399;51.444;-2.018;2024-02-23T11:29:42;97682.75;;;6.87;100.00
43436;BME280;36399;51.444;-2.018;2024-02-23T11:32:16;97695.34;;;6.60;100.00
43436;BME280;36399;51.444;-2.018;2024-02-23T11:34:53;97703.13;;;6.62;100.00
43436;BME280;36399;51.444;-2.018;2024-02-23T11:37:19;97710.72;;;6.79;100.00
43436;BME280;36399;51.444;-2.018;2024-02-23T11:39:46;97708.25;;;6.68;100.00
43436;BME280;36399;51.444;-2.018;2024-02-23T11:42:12;97703.47;;;6.41;100.00
43436;BME280;36399;51.444;-2.018;2024-02-23T11:44:38;97700.56;;;6.59;100.00
43436;BME280;36399;51.444;-2.018;2024-02-23T11:47:04;97705.00;;;6.54;100.00
43436;BME280;36399;51.444;-2.018;2024-02-23T11:49:30;97701.38;;;7.15;100.00
43436;BME280;36399;51.444;-2.018;2024-02-23T11:51:56;97689.16;;;7.63;100.00
43436;BME280;36399;51.444;-2.018;2024-02-23T11:54:22;97681.63;;;7.49;100.00
43436;BME280;36399;51.444;-2.018;2024-02-23T11:56:49;97678.81;;;7.58;100.00
43436;BME280;36399;51.444;-2.018;2024-02-23T11:59:20;97679.00;;;7.49;100.00
43436;BME280;36399;51.444;-2.018;2024-02-23T12:01:46;97685.50;;;7.28;100.00
43436;BME280;36399;51.444;-2.018;2024-02-23T12:04:15;97659.75;;;7.09;100.00
43436;BME280;36399;51.444;-2.018;2024-02-23T12:06:42;97663.56;;;6.91;100.00
43436;BME280;36399;51.444;-2.018;2024-02-23T12:09:09;97678.56;;;6.78;100.00
43436;BME280;36399;51.444;-2.018;2024-02-23T12:11:35;97678.38;;;6.33;100.00
43436;BME280;36399;51.444;-2.018;2024-02-23T12:14:02;97668.16;;;6.20;100.00
43436;BME280;36399;51.444;-2.018;2024-02-23T12:16:28;97672.09;;;6.47;100.00
43436;BME280;36399;51.444;-2.018;2024-02-23T12:18:55;97663.34;;;6.51;100.00
43436;BME280;36399;51.444;-2.018;2024-02-23T12:21:23;97656.66;;;6.88;100.00
43436;BME280;36399;51.444;-2.018;2024-02-23T12:23:49;97650.50;;;6.92;100.00
43436;BME280;36399;51.444;-2.018;2024-02-23T12:26:17;97649.56;;;6.96;100.00
43436;BME280;36399;51.444;-2.018;2024-02-23T12:28:44;97652.25;;;6.90;100.00
43436;BME280;36399;51.444;-2.018;2024-02-23T12:31:10;97644.41;;;6.92;100.00
43436;BME280;36399;51.444;-2.018;2024-02-23T12:33:37;97645.09;;;7.02;100.00
43436;BME280;36399;51.444;-2.018;2024-02-23T12:36:06;97636.63;;;6.90;100.00
43436;BME280;36399;51.444;-2.018;2024-02-23T12:38:33;97630.63;;;6.85;100.00
43436;BME280;36399;51.444;-2.018;2024-02-23T12:41:00;97629.53;;;6.97;100.00
43436;BME280;36399;51.444;-2.018;2024-02-23T12:43:26;97626.59;;;7.15;100.00
43436;BME280;36399;51.444;-2.018;2024-02-23T12:45:53;97630.47;;;6.94;100.00
43436;BME280;36399;51.444;-2.018;2024-02-23T12:48:20;97632.72;;;7.13;100.00